Main page
METAR-TAF:

METAR-TAF

Airports :

Pago Pago International Airport

Pago Pago, United States Minor Outlying Islands

latitude: 14-20S, longitude: 170-43W, elevation: 3 m

Current weather observation

The report was made 20 minutes ago, at 13:50 UTC
Calm wind
Temperature 25°C
Humidity 89%
Pressure 1011 hPa
Visibility: 16.1 km
Scattered clouds at a height of 1800 ft
Broken clouds at a height of 4000 ft
Broken clouds at a height of 10000 ft

METAR: NSTU 161350Z 00000KT 10SM SCT018 BKN040 BKN100 25/23 A2986 RMK SLP112 T02460232

Time: 03:10 (14:10 UTC)

Forecast

The report was made 2 hours and 41 minutes ago, at 11:29 UTC
Forecast valid from 16 at 12 UTC to 17 at 12 UTC
Wind 10 kt from the East
Visibility: 10 km
Scattered clouds at a height of 1500 ft
Broken clouds at a height of 4000 ft
Broken clouds at a height of 10000 ft
showers in vicinity

TAF: NSTU 161129Z 1612/1712 08010KT P6SM VCSH SCT015 BKN040 BKN100

Weather observations and forecasts of more than 4000 airports (METAR and TAF reports).

The available stations are represented by yellow and red dots on the map.

Hover mouse over dot to see the name of the station.

Then click to see weather observations and forecasts.

To change the map : click on the green buttons with a black cross to zoom in, on the green button with a dash to zoom out, or on the green arrows for adjacent maps.


METAR-TAF: